sensor_id;sensor_type;location;lat;lon;timestamp;P1;durP1;ratioP1;P2;durP2;ratioP2
6269;SDS011;3168;51.684;6.954;2023-05-19T00:00:08;6.80;;;2.83;;
6269;SDS011;3168;51.684;6.954;2023-05-19T00:02:35;2.97;;;1.83;;
6269;SDS011;3168;51.684;6.954;2023-05-19T00:05:02;2.33;;;2.13;;
6269;SDS011;3168;51.684;6.954;2023-05-19T00:07:29;2.27;;;2.17;;
6269;SDS011;3168;51.684;6.954;2023-05-19T00:09:54;3.10;;;2.80;;
6269;SDS011;3168;51.684;6.954;2023-05-19T00:12:20;2.93;;;2.67;;
6269;SDS011;3168;51.684;6.954;2023-05-19T00:14:46;4.60;;;2.35;;
6269;SDS011;3168;51.684;6.954;2023-05-19T00:17:12;3.93;;;2.80;;
6269;SDS011;3168;51.684;6.954;2023-05-19T00:19:39;2.03;;;2.03;;
6269;SDS011;3168;51.684;6.954;2023-05-19T00:22:04;2.90;;;2.13;;
6269;SDS011;3168;51.684;6.954;2023-05-19T00:24:30;14.13;;;3.53;;
6269;SDS011;3168;51.684;6.954;2023-05-19T00:26:56;4.53;;;2.10;;
6269;SDS011;3168;51.684;6.954;2023-05-19T00:29:22;3.50;;;3.20;;
6269;SDS011;3168;51.684;6.954;2023-05-19T00:31:48;3.27;;;3.07;;
6269;SDS011;3168;51.684;6.954;2023-05-19T00:34:14;2.17;;;2.17;;
6269;SDS011;3168;51.684;6.954;2023-05-19T00:36:40;2.80;;;2.53;;
6269;SDS011;3168;51.684;6.954;2023-05-19T00:39:06;21.33;;;2.70;;
6269;SDS011;3168;51.684;6.954;2023-05-19T00:41:32;8.50;;;2.50;;
6269;SDS011;3168;51.684;6.954;2023-05-19T00:43:57;2.80;;;2.40;;
6269;SDS011;3168;51.684;6.954;2023-05-19T00:46:24;2.63;;;2.53;;
6269;SDS011;3168;51.684;6.954;2023-05-19T00:48:50;2.53;;;2.43;;
6269;SDS011;3168;51.684;6.954;2023-05-19T00:51:16;5.13;;;2.33;;
6269;SDS011;3168;51.684;6.954;2023-05-19T00:53:42;6.43;;;2.67;;
6269;SDS011;3168;51.684;6.954;2023-05-19T00:56:08;7.67;;;2.83;;
6269;SDS011;3168;51.684;6.954;2023-05-19T00:58:34;3.00;;;2.73;;
6269;SDS011;3168;51.684;6.954;2023-05-19T01:00:59;3.27;;;2.23;;
6269;SDS011;3168;51.684;6.954;2023-05-19T01:03:29;2.90;;;2.80;;
6269;SDS011;3168;51.684;6.954;2023-05-19T01:05:55;2.97;;;2.80;;
6269;SDS011;3168;51.684;6.954;2023-05-19T01:08:21;6.83;;;3.03;;
6269;SDS011;3168;51.684;6.954;2023-05-19T01:10:47;3.10;;;2.90;;
6269;SDS011;3168;51.684;6.954;2023-05-19T01:13:13;17.13;;;2.53;;
6269;SDS011;3168;51.684;6.954;2023-05-19T01:15:44;7.07;;;3.57;;
6269;SDS011;3168;51.684;6.954;2023-05-19T01:18:13;2.80;;;2.60;;
6269;SDS011;3168;51.684;6.954;2023-05-19T01:20:43;3.20;;;3.00;;
6269;SDS011;3168;51.684;6.954;2023-05-19T01:23:11;2.90;;;2.73;;
6269;SDS011;3168;51.684;6.954;2023-05-19T01:25:58;4.10;;;3.50;;
6269;SDS011;3168;51.684;6.954;2023-05-19T01:28:30;9.40;;;3.00;;
6269;SDS011;3168;51.684;6.954;2023-05-19T01:31:07;3.33;;;3.13;;
6269;SDS011;3168;51.684;6.954;2023-05-19T01:33:32;2.93;;;2.73;;
6269;SDS011;3168;51.684;6.954;2023-05-19T01:35:59;5.73;;;2.70;;
6269;SDS011;3168;51.684;6.954;2023-05-19T01:38:24;2.77;;;2.63;;
6269;SDS011;3168;51.684;6.954;2023-05-19T01:40:50;8.13;;;3.50;;
6269;SDS011;3168;51.684;6.954;2023-05-19T01:43:18;2.30;;;2.20;;
6269;SDS011;3168;51.684;6.954;2023-05-19T01:45:42;2.50;;;2.40;;
6269;SDS011;3168;51.684;6.954;2023-05-19T01:48:08;4.10;;;3.70;;
6269;SDS011;3168;51.684;6.954;2023-05-19T01:50:34;2.80;;;2.70;;
6269;SDS011;3168;51.684;6.954;2023-05-19T01:53:00;3.47;;;3.27;;
6269;SDS011;3168;51.684;6.954;2023-05-19T01:55:26;6.10;;;3.47;;
6269;SDS011;3168;51.684;6.954;2023-05-19T02:00:50;5.70;;;2.50;;
6269;SDS011;3168;51.684;6.954;2023-05-19T02:03:25;4.83;;;2.70;;
6269;SDS011;3168;51.684;6.954;2023-05-19T02:05:54;8.60;;;3.57;;
6269;SDS011;3168;51.684;6.954;2023-05-19T02:08:19;3.73;;;3.13;;
6269;SDS011;3168;51.684;6.954;2023-05-19T02:10:49;5.17;;;2.03;;
6269;SDS011;3168;51.684;6.954;2023-05-19T02:13:12;2.00;;;2.00;;
6269;SDS011;3168;51.684;6.954;2023-05-19T02:15:38;3.00;;;2.80;;
6269;SDS011;3168;51.684;6.954;2023-05-19T02:18:03;4.70;;;3.20;;
6269;SDS011;3168;51.684;6.954;2023-05-19T02:20:29;3.43;;;3.13;;
6269;SDS011;3168;51.684;6.954;2023-05-19T02:22:55;5.80;;;3.37;;
6269;SDS011;3168;51.684;6.954;2023-05-19T02:25:21;15.80;;;2.93;;
6269;SDS011;3168;51.684;6.954;2023-05-19T02:27:46;15.13;;;3.77;;
6269;SDS011;3168;51.684;6.954;2023-05-19T02:30:12;6.80;;;3.20;;
6269;SDS011;3168;51.684;6.954;2023-05-19T02:32:38;4.23;;;3.10;;
6269;SDS011;3168;51.684;6.954;2023-05-19T02:35:04;3.67;;;2.90;;
6269;SDS011;3168;51.684;6.954;2023-05-19T02:37:30;3.57;;;3.30;;
6269;SDS011;3168;51.684;6.954;2023-05-19T02:39:56;3.50;;;3.40;;
6269;SDS011;3168;51.684;6.954;2023-05-19T02:42:22;2.97;;;2.87;;
6269;SDS011;3168;51.684;6.954;2023-05-19T02:44:48;3.70;;;3.50;;
6269;SDS011;3168;51.684;6.954;2023-05-19T02:47:14;3.20;;;3.10;;
6269;SDS011;3168;51.684;6.954;2023-05-19T02:49:40;10.83;;;4.90;;
6269;SDS011;3168;51.684;6.954;2023-05-19T02:52:05;5.20;;;4.80;;
6269;SDS011;3168;51.684;6.954;2023-05-19T02:54:32;4.03;;;3.83;;
6269;SDS011;3168;51.684;6.954;2023-05-19T02:56:57;5.33;;;4.87;;
6269;SDS011;3168;51.684;6.954;2023-05-19T02:59:23;5.70;;;3.87;;
6269;SDS011;3168;51.684;6.954;2023-05-19T03:01:49;6.17;;;3.70;;
6269;SDS011;3168;51.684;6.954;2023-05-19T03:04:14;3.67;;;3.47;;
6269;SDS011;3168;51.684;6.954;2023-05-19T03:06:40;4.20;;;4.00;;
6269;SDS011;3168;51.684;6.954;2023-05-19T03:09:06;3.80;;;3.37;;
6269;SDS011;3168;51.684;6.954;2023-05-19T03:11:32;3.90;;;3.70;;
6269;SDS011;3168;51.684;6.954;2023-05-19T03:13:58;4.67;;;3.30;;
6269;SDS011;3168;51.684;6.954;2023-05-19T03:16:23;2.90;;;2.70;;
6269;SDS011;3168;51.684;6.954;2023-05-19T03:18:49;3.93;;;3.70;;
6269;SDS011;3168;51.684;6.954;2023-05-19T03:21:15;4.40;;;3.30;;
6269;SDS011;3168;51.684;6.954;2023-05-19T03:23:41;5.20;;;4.80;;
6269;SDS011;3168;51.684;6.954;2023-05-19T03:26:07;3.30;;;3.17;;
6269;SDS011;3168;51.684;6.954;2023-05-19T03:28:32;4.60;;;4.20;;
6269;SDS011;3168;51.684;6.954;2023-05-19T03:30:58;11.37;;;4.73;;
6269;SDS011;3168;51.684;6.954;2023-05-19T03:33:24;6.40;;;4.87;;
6269;SDS011;3168;51.684;6.954;2023-05-19T03:35:50;4.63;;;4.30;;
6269;SDS011;3168;51.684;6.954;2023-05-19T03:38:16;12.43;;;4.03;;
6269;SDS011;3168;51.684;6.954;2023-05-19T03:40:42;3.97;;;3.73;;
6269;SDS011;3168;51.684;6.954;2023-05-19T03:43:07;4.50;;;3.70;;
6269;SDS011;3168;51.684;6.954;2023-05-19T03:45:33;5.80;;;5.00;;
6269;SDS011;3168;51.684;6.954;2023-05-19T03:47:59;4.10;;;3.87;;
6269;SDS011;3168;51.684;6.954;2023-05-19T03:50:25;4.00;;;3.70;;
6269;SDS011;3168;51.684;6.954;2023-05-19T03:52:51;3.90;;;3.70;;
6269;SDS011;3168;51.684;6.954;2023-05-19T03:55:16;11.53;;;4.47;;
6269;SDS011;3168;51.684;6.954;2023-05-19T03:57:42;7.07;;;4.90;;
6269;SDS011;3168;51.684;6.954;2023-05-19T04:00:09;5.43;;;3.50;;
6269;SDS011;3168;51.684;6.954;2023-05-19T04:02:35;7.10;;;4.07;;
6269;SDS011;3168;51.684;6.954;2023-05-19T04:05:01;4.90;;;4.43;;
6269;SDS011;3168;51.684;6.954;2023-05-19T04:07:27;7.60;;;4.70;;
6269;SDS011;3168;51.684;6.954;2023-05-19T04:09:53;3.57;;;3.37;;
6269;SDS011;3168;51.684;6.954;2023-05-19T04:12:18;8.60;;;3.67;;
6269;SDS011;3168;51.684;6.954;2023-05-19T04:14:44;5.10;;;4.13;;
6269;SDS011;3168;51.684;6.954;2023-05-19T04:17:10;4.75;;;3.85;;
6269;SDS011;3168;51.684;6.954;2023-05-19T04:19:36;5.80;;;3.80;;
6269;SDS011;3168;51.684;6.954;2023-05-19T04:22:01;5.20;;;4.90;;
6269;SDS011;3168;51.684;6.954;2023-05-19T04:24:27;3.60;;;3.50;;
6269;SDS011;3168;51.684;6.954;2023-05-19T04:26:53;6.67;;;4.70;;
6269;SDS011;3168;51.684;6.954;2023-05-19T04:29:19;4.33;;;3.90;;
6269;SDS011;3168;51.684;6.954;2023-05-19T04:31:45;5.23;;;4.60;;
6269;SDS011;3168;51.684;6.954;2023-05-19T04:34:11;7.13;;;4.33;;
6269;SDS011;3168;51.684;6.954;2023-05-19T04:36:37;3.80;;;3.63;;
6269;SDS011;3168;51.684;6.954;2023-05-19T04:39:02;8.00;;;4.50;;
6269;SDS011;3168;51.684;6.954;2023-05-19T04:41:28;4.97;;;4.57;;
6269;SDS011;3168;51.684;6.954;2023-05-19T04:43:54;3.83;;;3.63;;
6269;SDS011;3168;51.684;6.954;2023-05-19T04:46:20;4.27;;;3.97;;
6269;SDS011;3168;51.684;6.954;2023-05-19T04:48:46;6.13;;;4.63;;
6269;SDS011;3168;51.684;6.954;2023-05-19T04:51:11;4.93;;;3.50;;
6269;SDS011;3168;51.684;6.954;2023-05-19T04:53:37;16.80;;;5.50;;
6269;SDS011;3168;51.684;6.954;2023-05-19T04:56:03;6.13;;;4.70;;
6269;SDS011;3168;51.684;6.954;2023-05-19T04:58:29;18.33;;;4.43;;
6269;SDS011;3168;51.684;6.954;2023-05-19T05:00:55;4.73;;;4.43;;
6269;SDS011;3168;51.684;6.954;2023-05-19T05:03:21;6.83;;;5.00;;
6269;SDS011;3168;51.684;6.954;2023-05-19T05:05:57;4.13;;;3.80;;
6269;SDS011;3168;51.684;6.954;2023-05-19T05:08:23;16.60;;;4.57;;
6269;SDS011;3168;51.684;6.954;2023-05-19T05:10:49;4.77;;;4.27;;
6269;SDS011;3168;51.684;6.954;2023-05-19T05:13:15;4.27;;;3.70;;
6269;SDS011;3168;51.684;6.954;2023-05-19T05:15:41;30.47;;;3.90;;
6269;SDS011;3168;51.684;6.954;2023-05-19T05:18:07;6.10;;;4.80;;
6269;SDS011;3168;51.684;6.954;2023-05-19T05:20:34;4.30;;;4.00;;
6269;SDS011;3168;51.684;6.954;2023-05-19T05:23:00;17.93;;;5.20;;
6269;SDS011;3168;51.684;6.954;2023-05-19T05:25:26;9.23;;;4.70;;
6269;SDS011;3168;51.684;6.954;2023-05-19T05:27:52;5.73;;;4.17;;
6269;SDS011;3168;51.684;6.954;2023-05-19T05:30:18;4.77;;;4.17;;
6269;SDS011;3168;51.684;6.954;2023-05-19T05:32:44;4.73;;;4.40;;
6269;SDS011;3168;51.684;6.954;2023-05-19T05:35:10;8.00;;;4.00;;
6269;SDS011;3168;51.684;6.954;2023-05-19T05:37:36;7.23;;;4.50;;
6269;SDS011;3168;51.684;6.954;2023-05-19T05:40:02;5.03;;;4.63;;
6269;SDS011;3168;51.684;6.954;2023-05-19T05:42:28;5.30;;;4.80;;
6269;SDS011;3168;51.684;6.954;2023-05-19T05:44:53;13.73;;;4.47;;
6269;SDS011;3168;51.684;6.954;2023-05-19T05:47:19;4.00;;;3.67;;
6269;SDS011;3168;51.684;6.954;2023-05-19T05:49:46;4.20;;;3.90;;
6269;SDS011;3168;51.684;6.954;2023-05-19T05:52:12;4.40;;;3.60;;
6269;SDS011;3168;51.684;6.954;2023-05-19T05:54:38;3.87;;;3.60;;
6269;SDS011;3168;51.684;6.954;2023-05-19T05:57:04;10.47;;;4.27;;
6269;SDS011;3168;51.684;6.954;2023-05-19T05:59:31;6.33;;;3.47;;
6269;SDS011;3168;51.684;6.954;2023-05-19T06:01:57;3.80;;;3.60;;
6269;SDS011;3168;51.684;6.954;2023-05-19T06:04:23;3.27;;;2.97;;
6269;SDS011;3168;51.684;6.954;2023-05-19T06:06:48;7.03;;;3.20;;
6269;SDS011;3168;51.684;6.954;2023-05-19T06:09:14;5.50;;;2.40;;
6269;SDS011;3168;51.684;6.954;2023-05-19T06:11:40;2.27;;;2.17;;
6269;SDS011;3168;51.684;6.954;2023-05-19T06:14:07;2.07;;;1.97;;
6269;SDS011;3168;51.684;6.954;2023-05-19T06:16:32;2.77;;;2.57;;
6269;SDS011;3168;51.684;6.954;2023-05-19T06:18:58;2.57;;;2.47;;
6269;SDS011;3168;51.684;6.954;2023-05-19T06:21:24;2.60;;;2.23;;
6269;SDS011;3168;51.684;6.954;2023-05-19T06:23:50;3.17;;;2.90;;
6269;SDS011;3168;51.684;6.954;2023-05-19T06:26:16;3.67;;;2.80;;
6269;SDS011;3168;51.684;6.954;2023-05-19T06:28:42;13.90;;;3.17;;
6269;SDS011;3168;51.684;6.954;2023-05-19T06:31:07;3.20;;;3.03;;
6269;SDS011;3168;51.684;6.954;2023-05-19T06:33:33;3.43;;;2.30;;
6269;SDS011;3168;51.684;6.954;2023-05-19T06:35:59;3.30;;;3.00;;
6269;SDS011;3168;51.684;6.954;2023-05-19T06:38:25;2.90;;;2.33;;
6269;SDS011;3168;51.684;6.954;2023-05-19T06:40:51;8.10;;;3.17;;
6269;SDS011;3168;51.684;6.954;2023-05-19T06:43:17;2.40;;;2.07;;
6269;SDS011;3168;51.684;6.954;2023-05-19T06:45:42;4.73;;;2.53;;
6269;SDS011;3168;51.684;6.954;2023-05-19T06:48:08;2.77;;;2.10;;
6269;SDS011;3168;51.684;6.954;2023-05-19T06:50:34;17.13;;;2.60;;
6269;SDS011;3168;51.684;6.954;2023-05-19T06:53:00;3.07;;;2.50;;
6269;SDS011;3168;51.684;6.954;2023-05-19T06:55:26;4.30;;;2.87;;
6269;SDS011;3168;51.684;6.954;2023-05-19T06:57:51;7.40;;;3.10;;
6269;SDS011;3168;51.684;6.954;2023-05-19T07:00:17;4.87;;;2.70;;
6269;SDS011;3168;51.684;6.954;2023-05-19T07:02:43;5.43;;;2.13;;
6269;SDS011;3168;51.684;6.954;2023-05-19T07:05:09;2.37;;;2.27;;
6269;SDS011;3168;51.684;6.954;2023-05-19T07:07:35;3.07;;;2.13;;
6269;SDS011;3168;51.684;6.954;2023-05-19T07:10:01;2.17;;;1.97;;
6269;SDS011;3168;51.684;6.954;2023-05-19T07:12:27;1.67;;;1.57;;
6269;SDS011;3168;51.684;6.954;2023-05-19T07:14:52;3.73;;;1.90;;
6269;SDS011;3168;51.684;6.954;2023-05-19T07:17:18;3.20;;;2.00;;
6269;SDS011;3168;51.684;6.954;2023-05-19T07:19:44;3.43;;;2.00;;
6269;SDS011;3168;51.684;6.954;2023-05-19T07:22:10;3.07;;;2.10;;
6269;SDS011;3168;51.684;6.954;2023-05-19T07:24:36;2.40;;;2.30;;
6269;SDS011;3168;51.684;6.954;2023-05-19T07:27:01;2.03;;;1.93;;
6269;SDS011;3168;51.684;6.954;2023-05-19T07:29:28;6.47;;;2.20;;
6269;SDS011;3168;51.684;6.954;2023-05-19T07:31:54;4.20;;;1.73;;
6269;SDS011;3168;51.684;6.954;2023-05-19T07:34:20;4.50;;;1.70;;
6269;SDS011;3168;51.684;6.954;2023-05-19T07:36:46;4.97;;;1.87;;
6269;SDS011;3168;51.684;6.954;2023-05-19T07:39:12;3.30;;;1.80;;
6269;SDS011;3168;51.684;6.954;2023-05-19T07:41:37;2.43;;;2.23;;
6269;SDS011;3168;51.684;6.954;2023-05-19T07:44:03;2.40;;;2.13;;
6269;SDS011;3168;51.684;6.954;2023-05-19T07:46:29;2.87;;;1.80;;
6269;SDS011;3168;51.684;6.954;2023-05-19T07:48:55;2.00;;;1.37;;
6269;SDS011;3168;51.684;6.954;2023-05-19T07:51:21;5.30;;;2.10;;
6269;SDS011;3168;51.684;6.954;2023-05-19T07:53:47;1.70;;;1.67;;
6269;SDS011;3168;51.684;6.954;2023-05-19T07:56:13;1.60;;;1.60;;
6269;SDS011;3168;51.684;6.954;2023-05-19T07:58:39;1.60;;;1.60;;
6269;SDS011;3168;51.684;6.954;2023-05-19T08:01:05;1.90;;;1.80;;
6269;SDS011;3168;51.684;6.954;2023-05-19T08:03:32;4.40;;;1.80;;
6269;SDS011;3168;51.684;6.954;2023-05-19T08:05:58;1.73;;;1.10;;
6269;SDS011;3168;51.684;6.954;2023-05-19T08:08:23;3.40;;;2.50;;
6269;SDS011;3168;51.684;6.954;2023-05-19T08:10:49;1.63;;;1.53;;
6269;SDS011;3168;51.684;6.954;2023-05-19T08:13:15;1.70;;;1.20;;
6269;SDS011;3168;51.684;6.954;2023-05-19T08:15:41;2.87;;;1.70;;
6269;SDS011;3168;51.684;6.954;2023-05-19T08:18:07;7.40;;;1.60;;
6269;SDS011;3168;51.684;6.954;2023-05-19T08:20:33;1.67;;;1.57;;
6269;SDS011;3168;51.684;6.954;2023-05-19T08:22:59;5.53;;;1.77;;
6269;SDS011;3168;51.684;6.954;2023-05-19T08:25:24;1.07;;;1.07;;
6269;SDS011;3168;51.684;6.954;2023-05-19T08:27:50;2.40;;;1.40;;
6269;SDS011;3168;51.684;6.954;2023-05-19T08:30:16;1.43;;;1.33;;
6269;SDS011;3168;51.684;6.954;2023-05-19T08:32:42;1.37;;;1.37;;
6269;SDS011;3168;51.684;6.954;2023-05-19T08:35:08;2.37;;;2.27;;
6269;SDS011;3168;51.684;6.954;2023-05-19T08:37:35;1.37;;;1.13;;
6269;SDS011;3168;51.684;6.954;2023-05-19T08:40:01;1.63;;;1.53;;
6269;SDS011;3168;51.684;6.954;2023-05-19T08:42:27;5.80;;;1.60;;
6269;SDS011;3168;51.684;6.954;2023-05-19T08:44:53;1.67;;;1.57;;
6269;SDS011;3168;51.684;6.954;2023-05-19T08:47:18;1.90;;;1.30;;
6269;SDS011;3168;51.684;6.954;2023-05-19T08:49:45;1.50;;;1.40;;
6269;SDS011;3168;51.684;6.954;2023-05-19T08:52:21;3.33;;;1.20;;
6269;SDS011;3168;51.684;6.954;2023-05-19T08:54:52;2.00;;;1.90;;
6269;SDS011;3168;51.684;6.954;2023-05-19T08:57:16;3.83;;;1.40;;
6269;SDS011;3168;51.684;6.954;2023-05-19T08:59:42;1.97;;;1.83;;
6269;SDS011;3168;51.684;6.954;2023-05-19T09:02:08;4.20;;;1.87;;
6269;SDS011;3168;51.684;6.954;2023-05-19T09:04:34;2.70;;;1.40;;
6269;SDS011;3168;51.684;6.954;2023-05-19T09:07:00;1.20;;;1.20;;
6269;SDS011;3168;51.684;6.954;2023-05-19T09:09:26;3.07;;;1.43;;
6269;SDS011;3168;51.684;6.954;2023-05-19T09:11:52;3.17;;;1.53;;
6269;SDS011;3168;51.684;6.954;2023-05-19T09:14:18;1.30;;;1.30;;
6269;SDS011;3168;51.684;6.954;2023-05-19T09:16:44;4.73;;;1.83;;
6269;SDS011;3168;51.684;6.954;2023-05-19T09:19:12;0.93;;;0.93;;
6269;SDS011;3168;51.684;6.954;2023-05-19T09:21:36;2.60;;;1.63;;
6269;SDS011;3168;51.684;6.954;2023-05-19T09:24:03;3.50;;;1.90;;
6269;SDS011;3168;51.684;6.954;2023-05-19T09:26:35;1.07;;;1.07;;
6269;SDS011;3168;51.684;6.954;2023-05-19T09:29:00;1.23;;;1.13;;
6269;SDS011;3168;51.684;6.954;2023-05-19T09:31:29;1.93;;;1.07;;
6269;SDS011;3168;51.684;6.954;2023-05-19T09:33:53;3.50;;;1.33;;
6269;SDS011;3168;51.684;6.954;2023-05-19T09:36:19;3.23;;;1.40;;
6269;SDS011;3168;51.684;6.954;2023-05-19T09:38:45;2.80;;;1.20;;
6269;SDS011;3168;51.684;6.954;2023-05-19T09:41:12;1.30;;;1.30;;
6269;SDS011;3168;51.684;6.954;2023-05-19T09:43:37;2.83;;;1.20;;
6269;SDS011;3168;51.684;6.954;2023-05-19T09:46:05;2.27;;;1.80;;
6269;SDS011;3168;51.684;6.954;2023-05-19T09:48:31;9.43;;;1.70;;
6269;SDS011;3168;51.684;6.954;2023-05-19T09:50:58;2.80;;;1.20;;
6269;SDS011;3168;51.684;6.954;2023-05-19T09:53:23;2.50;;;1.50;;
6269;SDS011;3168;51.684;6.954;2023-05-19T09:55:49;1.77;;;1.67;;
6269;SDS011;3168;51.684;6.954;2023-05-19T09:58:15;8.33;;;1.90;;
6269;SDS011;3168;51.684;6.954;2023-05-19T10:00:40;2.23;;;1.77;;
6269;SDS011;3168;51.684;6.954;2023-05-19T10:03:06;3.90;;;1.57;;
6269;SDS011;3168;51.684;6.954;2023-05-19T10:05:32;2.83;;;1.70;;
6269;SDS011;3168;51.684;6.954;2023-05-19T10:07:58;1.20;;;1.20;;
6269;SDS011;3168;51.684;6.954;2023-05-19T10:10:24;1.03;;;1.03;;
6269;SDS011;3168;51.684;6.954;2023-05-19T10:12:49;4.13;;;2.07;;
6269;SDS011;3168;51.684;6.954;2023-05-19T10:15:16;5.93;;;1.90;;
6269;SDS011;3168;51.684;6.954;2023-05-19T10:17:42;1.40;;;1.30;;
6269;SDS011;3168;51.684;6.954;2023-05-19T10:20:09;1.37;;;1.37;;
6269;SDS011;3168;51.684;6.954;2023-05-19T10:22:34;3.03;;;1.77;;
6269;SDS011;3168;51.684;6.954;2023-05-19T10:25:00;1.20;;;1.17;;
6269;SDS011;3168;51.684;6.954;2023-05-19T10:27:26;1.33;;;1.30;;
6269;SDS011;3168;51.684;6.954;2023-05-19T10:29:51;1.50;;;1.40;;
6269;SDS011;3168;51.684;6.954;2023-05-19T10:32:20;1.73;;;1.63;;
6269;SDS011;3168;51.684;6.954;2023-05-19T10:34:48;2.07;;;1.70;;
6269;SDS011;3168;51.684;6.954;2023-05-19T10:37:44;1.70;;;1.60;;
6269;SDS011;3168;51.684;6.954;2023-05-19T10:40:10;8.73;;;1.97;;
6269;SDS011;3168;51.684;6.954;2023-05-19T10:42:37;3.90;;;1.37;;
6269;SDS011;3168;51.684;6.954;2023-05-19T10:45:04;6.63;;;1.90;;
6269;SDS011;3168;51.684;6.954;2023-05-19T10:47:42;5.77;;;1.90;;
6269;SDS011;3168;51.684;6.954;2023-05-19T10:50:09;2.53;;;1.43;;
6269;SDS011;3168;51.684;6.954;2023-05-19T10:52:36;1.77;;;1.67;;
6269;SDS011;3168;51.684;6.954;2023-05-19T10:55:02;1.10;;;1.10;;
6269;SDS011;3168;51.684;6.954;2023-05-19T10:57:28;4.57;;;1.67;;
6269;SDS011;3168;51.684;6.954;2023-05-19T10:59:54;1.40;;;1.30;;
6269;SDS011;3168;51.684;6.954;2023-05-19T11:05:05;9.23;;;1.30;;
6269;SDS011;3168;51.684;6.954;2023-05-19T11:07:24;1.50;;;1.40;;
6269;SDS011;3168;51.684;6.954;2023-05-19T11:09:51;1.60;;;1.60;;
6269;SDS011;3168;51.684;6.954;2023-05-19T11:12:19;3.03;;;1.23;;
6269;SDS011;3168;51.684;6.954;2023-05-19T11:14:45;3.73;;;1.20;;
6269;SDS011;3168;51.684;6.954;2023-05-19T11:17:12;3.80;;;1.23;;
6269;SDS011;3168;51.684;6.954;2023-05-19T11:19:37;2.00;;;1.90;;
6269;SDS011;3168;51.684;6.954;2023-05-19T11:22:07;5.93;;;2.40;;
6269;SDS011;3168;51.684;6.954;2023-05-19T11:24:37;1.80;;;1.70;;
6269;SDS011;3168;51.684;6.954;2023-05-19T11:27:18;1.80;;;1.67;;
6269;SDS011;3168;51.684;6.954;2023-05-19T11:29:44;1.80;;;1.60;;
6269;SDS011;3168;51.684;6.954;2023-05-19T11:32:10;2.87;;;1.53;;
6269;SDS011;3168;51.684;6.954;2023-05-19T11:34:36;1.40;;;1.30;;
6269;SDS011;3168;51.684;6.954;2023-05-19T11:37:03;1.07;;;1.07;;
6269;SDS011;3168;51.684;6.954;2023-05-19T11:39:29;1.40;;;1.40;;
6269;SDS011;3168;51.684;6.954;2023-05-19T11:41:55;4.33;;;1.80;;
6269;SDS011;3168;51.684;6.954;2023-05-19T11:44:21;1.50;;;1.40;;
6269;SDS011;3168;51.684;6.954;2023-05-19T11:46:46;1.57;;;1.47;;
6269;SDS011;3168;51.684;6.954;2023-05-19T11:49:12;2.43;;;1.67;;
6269;SDS011;3168;51.684;6.954;2023-05-19T11:51:38;4.30;;;1.67;;
6269;SDS011;3168;51.684;6.954;2023-05-19T11:54:04;6.03;;;1.63;;
6269;SDS011;3168;51.684;6.954;2023-05-19T11:56:32;5.67;;;1.70;;
6269;SDS011;3168;51.684;6.954;2023-05-19T11:58:57;1.67;;;1.10;;
6269;SDS011;3168;51.684;6.954;2023-05-19T12:01:23;2.00;;;1.40;;
6269;SDS011;3168;51.684;6.954;2023-05-19T12:03:50;2.90;;;2.27;;
6269;SDS011;3168;51.684;6.954;2023-05-19T12:06:16;4.30;;;1.33;;
6269;SDS011;3168;51.684;6.954;2023-05-19T12:08:42;1.83;;;1.60;;
6269;SDS011;3168;51.684;6.954;2023-05-19T12:11:08;1.70;;;1.30;;
6269;SDS011;3168;51.684;6.954;2023-05-19T12:13:34;1.20;;;1.20;;
6269;SDS011;3168;51.684;6.954;2023-05-19T12:16:00;2.40;;;2.20;;
6269;SDS011;3168;51.684;6.954;2023-05-19T12:18:28;3.20;;;1.17;;
6269;SDS011;3168;51.684;6.954;2023-05-19T12:20:52;1.90;;;1.63;;
6269;SDS011;3168;51.684;6.954;2023-05-19T12:23:18;1.87;;;1.30;;
6269;SDS011;3168;51.684;6.954;2023-05-19T12:25:44;1.37;;;1.37;;
6269;SDS011;3168;51.684;6.954;2023-05-19T12:28:10;1.60;;;1.50;;
6269;SDS011;3168;51.684;6.954;2023-05-19T12:30:36;1.47;;;1.37;;
6269;SDS011;3168;51.684;6.954;2023-05-19T12:33:02;5.20;;;1.40;;
6269;SDS011;3168;51.684;6.954;2023-05-19T12:35:28;2.80;;;1.87;;
6269;SDS011;3168;51.684;6.954;2023-05-19T12:37:54;2.00;;;1.10;;
6269;SDS011;3168;51.684;6.954;2023-05-19T12:40:20;3.90;;;1.40;;
6269;SDS011;3168;51.684;6.954;2023-05-19T12:42:46;1.40;;;1.40;;
6269;SDS011;3168;51.684;6.954;2023-05-19T12:45:12;2.50;;;1.70;;
6269;SDS011;3168;51.684;6.954;2023-05-19T12:47:39;4.20;;;1.70;;
6269;SDS011;3168;51.684;6.954;2023-05-19T12:50:05;2.60;;;1.50;;
6269;SDS011;3168;51.684;6.954;2023-05-19T12:52:32;1.30;;;1.20;;
6269;SDS011;3168;51.684;6.954;2023-05-19T12:54:59;3.57;;;1.80;;
6269;SDS011;3168;51.684;6.954;2023-05-19T12:57:24;1.47;;;1.17;;
6269;SDS011;3168;51.684;6.954;2023-05-19T12:59:50;1.60;;;1.50;;
6269;SDS011;3168;51.684;6.954;2023-05-19T13:02:17;1.87;;;1.57;;
6269;SDS011;3168;51.684;6.954;2023-05-19T13:04:42;1.60;;;1.40;;
6269;SDS011;3168;51.684;6.954;2023-05-19T13:07:07;6.50;;;1.43;;
6269;SDS011;3168;51.684;6.954;2023-05-19T13:09:33;1.50;;;1.40;;
6269;SDS011;3168;51.684;6.954;2023-05-19T13:11:59;0.93;;;0.93;;
6269;SDS011;3168;51.684;6.954;2023-05-19T13:14:25;10.23;;;1.13;;
6269;SDS011;3168;51.684;6.954;2023-05-19T13:16:51;3.33;;;1.47;;
6269;SDS011;3168;51.684;6.954;2023-05-19T13:19:17;1.20;;;1.20;;
6269;SDS011;3168;51.684;6.954;2023-05-19T13:21:42;1.97;;;1.87;;
6269;SDS011;3168;51.684;6.954;2023-05-19T13:24:08;2.13;;;1.60;;
6269;SDS011;3168;51.684;6.954;2023-05-19T13:26:34;1.20;;;1.20;;
6269;SDS011;3168;51.684;6.954;2023-05-19T13:29:00;1.30;;;1.20;;
6269;SDS011;3168;51.684;6.954;2023-05-19T13:31:26;1.90;;;1.80;;
6269;SDS011;3168;51.684;6.954;2023-05-19T13:33:59;2.10;;;1.50;;
6269;SDS011;3168;51.684;6.954;2023-05-19T13:36:25;1.43;;;1.27;;
6269;SDS011;3168;51.684;6.954;2023-05-19T13:38:50;2.47;;;2.20;;
6269;SDS011;3168;51.684;6.954;2023-05-19T13:41:18;3.63;;;1.67;;
6269;SDS011;3168;51.684;6.954;2023-05-19T13:43:42;1.50;;;1.50;;
6269;SDS011;3168;51.684;6.954;2023-05-19T13:46:08;1.60;;;1.60;;
6269;SDS011;3168;51.684;6.954;2023-05-19T13:48:34;2.93;;;1.37;;
6269;SDS011;3168;51.684;6.954;2023-05-19T13:51:00;4.20;;;1.37;;
6269;SDS011;3168;51.684;6.954;2023-05-19T13:53:25;3.90;;;1.67;;
6269;SDS011;3168;51.684;6.954;2023-05-19T13:55:51;1.57;;;1.40;;
6269;SDS011;3168;51.684;6.954;2023-05-19T13:58:17;2.07;;;1.37;;
6269;SDS011;3168;51.684;6.954;2023-05-19T14:00:43;5.23;;;1.43;;
6269;SDS011;3168;51.684;6.954;2023-05-19T14:03:09;2.57;;;1.47;;
6269;SDS011;3168;51.684;6.954;2023-05-19T14:05:35;1.77;;;1.57;;
6269;SDS011;3168;51.684;6.954;2023-05-19T14:08:01;1.40;;;1.40;;
6269;SDS011;3168;51.684;6.954;2023-05-19T14:10:26;1.77;;;1.67;;
6269;SDS011;3168;51.684;6.954;2023-05-19T14:12:52;2.33;;;2.13;;
6269;SDS011;3168;51.684;6.954;2023-05-19T14:15:18;1.10;;;1.10;;
6269;SDS011;3168;51.684;6.954;2023-05-19T14:17:44;0.80;;;0.80;;
6269;SDS011;3168;51.684;6.954;2023-05-19T14:20:10;3.47;;;1.60;;
6269;SDS011;3168;51.684;6.954;2023-05-19T14:22:36;7.00;;;2.27;;
6269;SDS011;3168;51.684;6.954;2023-05-19T14:25:03;2.67;;;1.40;;
6269;SDS011;3168;51.684;6.954;2023-05-19T14:27:29;1.83;;;1.40;;
6269;SDS011;3168;51.684;6.954;2023-05-19T14:29:55;1.40;;;1.40;;
6269;SDS011;3168;51.684;6.954;2023-05-19T14:32:20;1.20;;;1.20;;
6269;SDS011;3168;51.684;6.954;2023-05-19T14:34:46;0.93;;;0.93;;
6269;SDS011;3168;51.684;6.954;2023-05-19T14:37:12;2.00;;;1.90;;
6269;SDS011;3168;51.684;6.954;2023-05-19T14:39:38;2.30;;;1.17;;
6269;SDS011;3168;51.684;6.954;2023-05-19T14:42:04;1.17;;;1.10;;
6269;SDS011;3168;51.684;6.954;2023-05-19T14:44:30;2.80;;;1.67;;
6269;SDS011;3168;51.684;6.954;2023-05-19T14:46:58;2.53;;;1.60;;
6269;SDS011;3168;51.684;6.954;2023-05-19T14:49:23;4.50;;;3.43;;
6269;SDS011;3168;51.684;6.954;2023-05-19T14:51:49;1.23;;;1.23;;
6269;SDS011;3168;51.684;6.954;2023-05-19T14:54:15;2.10;;;1.00;;
6269;SDS011;3168;51.684;6.954;2023-05-19T14:56:40;1.10;;;1.10;;
6269;SDS011;3168;51.684;6.954;2023-05-19T14:59:06;6.23;;;1.73;;
6269;SDS011;3168;51.684;6.954;2023-05-19T15:01:32;4.80;;;1.60;;
6269;SDS011;3168;51.684;6.954;2023-05-19T15:03:58;1.47;;;1.27;;
6269;SDS011;3168;51.684;6.954;2023-05-19T15:06:23;1.10;;;1.10;;
6269;SDS011;3168;51.684;6.954;2023-05-19T15:08:50;1.30;;;1.20;;
6269;SDS011;3168;51.684;6.954;2023-05-19T15:11:16;1.37;;;1.37;;
6269;SDS011;3168;51.684;6.954;2023-05-19T15:13:42;2.00;;;1.30;;